ADDS TAF Data INFO
IDs: Format: Raw Decoded Include METARs

Data at: 1708 UTC 26 Apr 2018

KPGA 261653Z AUTO 00000KT 10SM CLR 22/M07 A3012 RMK AO2 SLP146 T02221072 TSNO

KPGA 261139Z 2612/2712 VRB05KT P6SM SCT250
  FM261800 02011KT P6SM SCT250
  FM270300 VRB05KT P6SM BKN140